sensor_id;sensor_type;location;lat;lon;timestamp;temperature;humidity
10304;DHT22;5197;48.152;8.590;2022-09-17T00:01:05;8.30;29.70
10304;DHT22;5197;48.152;8.590;2022-09-17T00:03:33;8.40;29.40
10304;DHT22;5197;48.152;8.590;2022-09-17T00:06:07;8.30;29.20
10304;DHT22;5197;48.152;8.590;2022-09-17T00:08:36;8.30;29.10
10304;DHT22;5197;48.152;8.590;2022-09-17T00:11:15;8.30;28.80
10304;DHT22;5197;48.152;8.590;2022-09-17T00:13:43;8.40;28.40
10304;DHT22;5197;48.152;8.590;2022-09-17T00:16:11;8.40;28.30
10304;DHT22;5197;48.152;8.590;2022-09-17T00:18:38;8.30;28.40
10304;DHT22;5197;48.152;8.590;2022-09-17T00:21:16;8.30;28.80
10304;DHT22;5197;48.152;8.590;2022-09-17T00:23:43;8.20;29.10
10304;DHT22;5197;48.152;8.590;2022-09-17T00:26:10;8.20;29.70
10304;DHT22;5197;48.152;8.590;2022-09-17T00:28:38;8.20;29.50
10304;DHT22;5197;48.152;8.590;2022-09-17T00:31:08;8.20;29.90
10304;DHT22;5197;48.152;8.590;2022-09-17T00:33:36;8.20;29.90
10304;DHT22;5197;48.152;8.590;2022-09-17T00:36:05;8.20;30.20
10304;DHT22;5197;48.152;8.590;2022-09-17T00:38:32;8.30;30.40
10304;DHT22;5197;48.152;8.590;2022-09-17T00:41:00;8.30;30.10
10304;DHT22;5197;48.152;8.590;2022-09-17T00:43:35;8.30;29.90
10304;DHT22;5197;48.152;8.590;2022-09-17T00:46:11;8.40;29.90
10304;DHT22;5197;48.152;8.590;2022-09-17T00:48:40;8.30;29.90
10304;DHT22;5197;48.152;8.590;2022-09-17T00:51:08;8.30;30.30
10304;DHT22;5197;48.152;8.590;2022-09-17T00:53:36;8.30;30.90
10304;DHT22;5197;48.152;8.590;2022-09-17T00:56:27;8.20;33.70
10304;DHT22;5197;48.152;8.590;2022-09-17T00:58:56;8.10;36.70
10304;DHT22;5197;48.152;8.590;2022-09-17T01:01:24;8.00;38.80
10304;DHT22;5197;48.152;8.590;2022-09-17T01:03:51;7.90;41.20
10304;DHT22;5197;48.152;8.590;2022-09-17T01:12:40;7.70;45.50
10304;DHT22;5197;48.152;8.590;2022-09-17T01:18:19;7.70;45.40
10304;DHT22;5197;48.152;8.590;2022-09-17T01:29:53;7.50;45.30
10304;DHT22;5197;48.152;8.590;2022-09-17T01:35:48;7.40;45.20
10304;DHT22;5197;48.152;8.590;2022-09-17T01:38:28;7.40;45.20
10304;DHT22;5197;48.152;8.590;2022-09-17T01:46:29;7.40;42.60
10304;DHT22;5197;48.152;8.590;2022-09-17T01:48:59;7.40;43.40
10304;DHT22;5197;48.152;8.590;2022-09-17T01:51:31;7.40;43.40
10304;DHT22;5197;48.152;8.590;2022-09-17T01:54:15;7.40;44.00
10304;DHT22;5197;48.152;8.590;2022-09-17T01:57:21;7.40;43.80
10304;DHT22;5197;48.152;8.590;2022-09-17T01:59:57;7.40;42.50
10304;DHT22;5197;48.152;8.590;2022-09-17T02:02:29;7.50;42.00
10304;DHT22;5197;48.152;8.590;2022-09-17T02:05:05;7.50;42.90
10304;DHT22;5197;48.152;8.590;2022-09-17T02:07:39;7.50;43.70
10304;DHT22;5197;48.152;8.590;2022-09-17T02:10:11;7.50;43.70
10304;DHT22;5197;48.152;8.590;2022-09-17T02:12:43;7.50;42.90
10304;DHT22;5197;48.152;8.590;2022-09-17T02:15:19;7.50;43.30
10304;DHT22;5197;48.152;8.590;2022-09-17T02:17:53;7.50;42.70
10304;DHT22;5197;48.152;8.590;2022-09-17T02:20:25;7.40;46.30
10304;DHT22;5197;48.152;8.590;2022-09-17T02:22:58;7.40;45.20
10304;DHT22;5197;48.152;8.590;2022-09-17T02:25:49;7.40;43.20
10304;DHT22;5197;48.152;8.590;2022-09-17T02:28:39;7.40;41.80
10304;DHT22;5197;48.152;8.590;2022-09-17T02:31:07;7.40;42.10
10304;DHT22;5197;48.152;8.590;2022-09-17T02:33:36;7.30;42.10
10304;DHT22;5197;48.152;8.590;2022-09-17T02:36:03;7.30;40.70
10304;DHT22;5197;48.152;8.590;2022-09-17T02:38:30;7.40;40.50
10304;DHT22;5197;48.152;8.590;2022-09-17T02:41:14;7.20;39.40
10304;DHT22;5197;48.152;8.590;2022-09-17T02:44:08;7.40;37.80
10304;DHT22;5197;48.152;8.590;2022-09-17T02:46:58;7.40;36.80
10304;DHT22;5197;48.152;8.590;2022-09-17T02:49:48;7.40;37.50
10304;DHT22;5197;48.152;8.590;2022-09-17T02:58:50;7.40;39.20
10304;DHT22;5197;48.152;8.590;2022-09-17T03:00:56;7.40;39.10
10304;DHT22;5197;48.152;8.590;2022-09-17T03:03:31;7.40;41.50
10304;DHT22;5197;48.152;8.590;2022-09-17T03:06:01;7.50;41.20
10304;DHT22;5197;48.152;8.590;2022-09-17T03:08:32;7.50;40.50
10304;DHT22;5197;48.152;8.590;2022-09-17T03:11:00;7.50;40.70
10304;DHT22;5197;48.152;8.590;2022-09-17T03:13:28;7.50;40.80
10304;DHT22;5197;48.152;8.590;2022-09-17T03:15:55;7.50;42.30
10304;DHT22;5197;48.152;8.590;2022-09-17T03:18:22;7.50;43.50
10304;DHT22;5197;48.152;8.590;2022-09-17T03:20:49;7.50;45.30
10304;DHT22;5197;48.152;8.590;2022-09-17T03:23:16;7.40;45.20
10304;DHT22;5197;48.152;8.590;2022-09-17T03:25:42;7.40;45.20
10304;DHT22;5197;48.152;8.590;2022-09-17T03:28:11;7.40;45.20
10304;DHT22;5197;48.152;8.590;2022-09-17T03:30:38;7.40;45.20
10304;DHT22;5197;48.152;8.590;2022-09-17T03:33:05;7.40;45.30
10304;DHT22;5197;48.152;8.590;2022-09-17T03:35:32;7.40;45.30
10304;DHT22;5197;48.152;8.590;2022-09-17T03:37:58;7.30;45.10
10304;DHT22;5197;48.152;8.590;2022-09-17T03:40:25;7.30;45.20
10304;DHT22;5197;48.152;8.590;2022-09-17T03:42:52;7.30;45.20
10304;DHT22;5197;48.152;8.590;2022-09-17T03:45:19;7.30;45.10
10304;DHT22;5197;48.152;8.590;2022-09-17T03:47:46;7.30;45.10
10304;DHT22;5197;48.152;8.590;2022-09-17T03:50:13;7.20;45.00
10304;DHT22;5197;48.152;8.590;2022-09-17T03:52:42;7.20;45.10
10304;DHT22;5197;48.152;8.590;2022-09-17T03:55:09;7.20;44.60
10304;DHT22;5197;48.152;8.590;2022-09-17T03:57:37;7.20;43.80
10304;DHT22;5197;48.152;8.590;2022-09-17T04:00:04;7.20;43.20
10304;DHT22;5197;48.152;8.590;2022-09-17T04:02:31;7.20;45.00
10304;DHT22;5197;48.152;8.590;2022-09-17T04:04:59;7.20;43.80
10304;DHT22;5197;48.152;8.590;2022-09-17T04:07:26;7.20;45.10
10304;DHT22;5197;48.152;8.590;2022-09-17T04:09:53;7.20;45.10
10304;DHT22;5197;48.152;8.590;2022-09-17T04:12:20;7.20;45.00
10304;DHT22;5197;48.152;8.590;2022-09-17T04:14:47;7.20;45.00
10304;DHT22;5197;48.152;8.590;2022-09-17T04:17:14;7.20;45.10
10304;DHT22;5197;48.152;8.590;2022-09-17T04:19:44;7.20;43.40
10304;DHT22;5197;48.152;8.590;2022-09-17T04:22:11;7.20;42.10
10304;DHT22;5197;48.152;8.590;2022-09-17T04:24:38;7.20;41.80
10304;DHT22;5197;48.152;8.590;2022-09-17T04:27:05;7.20;40.10
10304;DHT22;5197;48.152;8.590;2022-09-17T04:29:32;7.10;40.90
10304;DHT22;5197;48.152;8.590;2022-09-17T04:31:58;7.10;40.90
10304;DHT22;5197;48.152;8.590;2022-09-17T04:34:25;7.20;40.40
10304;DHT22;5197;48.152;8.590;2022-09-17T04:36:52;7.20;39.80
10304;DHT22;5197;48.152;8.590;2022-09-17T04:39:19;7.20;38.90
10304;DHT22;5197;48.152;8.590;2022-09-17T04:41:46;7.30;38.10
10304;DHT22;5197;48.152;8.590;2022-09-17T04:44:13;7.30;37.20
10304;DHT22;5197;48.152;8.590;2022-09-17T04:46:40;7.30;36.80
10304;DHT22;5197;48.152;8.590;2022-09-17T04:49:07;7.30;36.40
10304;DHT22;5197;48.152;8.590;2022-09-17T04:51:34;7.20;36.60
10304;DHT22;5197;48.152;8.590;2022-09-17T04:54:01;7.30;36.80
10304;DHT22;5197;48.152;8.590;2022-09-17T04:56:28;7.30;36.80
10304;DHT22;5197;48.152;8.590;2022-09-17T04:58:55;7.30;36.90
10304;DHT22;5197;48.152;8.590;2022-09-17T05:01:22;7.30;36.80
10304;DHT22;5197;48.152;8.590;2022-09-17T05:03:51;7.30;37.70
10304;DHT22;5197;48.152;8.590;2022-09-17T05:06:18;7.20;39.30
10304;DHT22;5197;48.152;8.590;2022-09-17T05:08:46;7.20;40.00
10304;DHT22;5197;48.152;8.590;2022-09-17T05:11:13;7.20;40.40
10304;DHT22;5197;48.152;8.590;2022-09-17T05:13:40;7.20;41.40
10304;DHT22;5197;48.152;8.590;2022-09-17T05:16:08;7.20;41.70
10304;DHT22;5197;48.152;8.590;2022-09-17T05:18:36;7.20;41.40
10304;DHT22;5197;48.152;8.590;2022-09-17T05:21:03;7.20;42.00
10304;DHT22;5197;48.152;8.590;2022-09-17T05:23:30;7.20;41.70
10304;DHT22;5197;48.152;8.590;2022-09-17T05:25:58;7.20;41.70
10304;DHT22;5197;48.152;8.590;2022-09-17T05:28:26;7.20;42.10
10304;DHT22;5197;48.152;8.590;2022-09-17T05:30:53;7.20;42.10
10304;DHT22;5197;48.152;8.590;2022-09-17T05:33:20;7.30;41.60
10304;DHT22;5197;48.152;8.590;2022-09-17T05:35:47;7.30;40.10
10304;DHT22;5197;48.152;8.590;2022-09-17T05:38:14;7.20;41.00
10304;DHT22;5197;48.152;8.590;2022-09-17T05:40:41;7.20;41.60
10304;DHT22;5197;48.152;8.590;2022-09-17T05:43:09;7.30;41.30
10304;DHT22;5197;48.152;8.590;2022-09-17T05:45:36;7.40;40.80
10304;DHT22;5197;48.152;8.590;2022-09-17T05:48:05;7.40;41.10
10304;DHT22;5197;48.152;8.590;2022-09-17T05:50:33;7.40;40.70
10304;DHT22;5197;48.152;8.590;2022-09-17T05:53:11;7.40;41.00
10304;DHT22;5197;48.152;8.590;2022-09-17T05:55:38;7.40;41.70
10304;DHT22;5197;48.152;8.590;2022-09-17T05:58:14;7.40;41.30
10304;DHT22;5197;48.152;8.590;2022-09-17T06:00:42;7.50;40.20
10304;DHT22;5197;48.152;8.590;2022-09-17T06:03:10;7.60;39.20
10304;DHT22;5197;48.152;8.590;2022-09-17T06:05:38;7.40;37.20
10304;DHT22;5197;48.152;8.590;2022-09-17T06:08:05;7.40;39.40
10304;DHT22;5197;48.152;8.590;2022-09-17T06:10:36;7.40;41.70
10304;DHT22;5197;48.152;8.590;2022-09-17T06:13:03;7.30;40.60
10304;DHT22;5197;48.152;8.590;2022-09-17T06:15:30;7.30;41.70
10304;DHT22;5197;48.152;8.590;2022-09-17T06:17:57;7.30;41.00
10304;DHT22;5197;48.152;8.590;2022-09-17T06:20:24;7.30;41.70
10304;DHT22;5197;48.152;8.590;2022-09-17T06:22:58;7.30;41.90
10304;DHT22;5197;48.152;8.590;2022-09-17T06:25:25;7.30;41.60
10304;DHT22;5197;48.152;8.590;2022-09-17T06:27:52;7.30;39.40
10304;DHT22;5197;48.152;8.590;2022-09-17T06:30:19;7.30;39.60
10304;DHT22;5197;48.152;8.590;2022-09-17T06:32:46;7.40;39.60
10304;DHT22;5197;48.152;8.590;2022-09-17T06:35:13;7.40;40.00
10304;DHT22;5197;48.152;8.590;2022-09-17T06:37:40;7.40;38.60
10304;DHT22;5197;48.152;8.590;2022-09-17T06:40:07;6.70;37.60
10304;DHT22;5197;48.152;8.590;2022-09-17T06:42:34;7.50;38.40
10304;DHT22;5197;48.152;8.590;2022-09-17T06:45:01;7.50;38.00
10304;DHT22;5197;48.152;8.590;2022-09-17T06:47:35;7.50;37.30
10304;DHT22;5197;48.152;8.590;2022-09-17T06:50:02;7.50;37.30
10304;DHT22;5197;48.152;8.590;2022-09-17T06:52:30;7.50;36.60
10304;DHT22;5197;48.152;8.590;2022-09-17T06:54:56;7.40;35.50
10304;DHT22;5197;48.152;8.590;2022-09-17T06:57:23;7.40;36.20
10304;DHT22;5197;48.152;8.590;2022-09-17T06:59:50;7.40;36.70
10304;DHT22;5197;48.152;8.590;2022-09-17T07:02:17;7.50;36.50
10304;DHT22;5197;48.152;8.590;2022-09-17T07:04:44;7.50;36.00
10304;DHT22;5197;48.152;8.590;2022-09-17T07:07:11;7.50;36.50
10304;DHT22;5197;48.152;8.590;2022-09-17T07:09:38;7.50;35.70
10304;DHT22;5197;48.152;8.590;2022-09-17T07:12:06;7.60;36.30
10304;DHT22;5197;48.152;8.590;2022-09-17T07:14:33;7.60;36.50
10304;DHT22;5197;48.152;8.590;2022-09-17T07:17:00;7.70;37.20
10304;DHT22;5197;48.152;8.590;2022-09-17T07:19:28;7.90;40.30
10304;DHT22;5197;48.152;8.590;2022-09-17T07:21:55;8.10;40.20
10304;DHT22;5197;48.152;8.590;2022-09-17T07:24:22;8.20;35.80
10304;DHT22;5197;48.152;8.590;2022-09-17T07:26:49;8.20;31.50
10304;DHT22;5197;48.152;8.590;2022-09-17T07:29:18;8.00;27.30
10304;DHT22;5197;48.152;8.590;2022-09-17T07:31:46;8.00;27.60
10304;DHT22;5197;48.152;8.590;2022-09-17T07:34:14;8.00;27.20
10304;DHT22;5197;48.152;8.590;2022-09-17T07:36:42;9.10;26.70
10304;DHT22;5197;48.152;8.590;2022-09-17T07:39:11;7.80;27.20
10304;DHT22;5197;48.152;8.590;2022-09-17T07:41:39;7.80;27.70
10304;DHT22;5197;48.152;8.590;2022-09-17T07:44:06;7.90;31.40
10304;DHT22;5197;48.152;8.590;2022-09-17T07:46:33;8.10;31.00
10304;DHT22;5197;48.152;8.590;2022-09-17T07:49:00;8.30;28.90
10304;DHT22;5197;48.152;8.590;2022-09-17T07:51:27;8.40;27.40
10304;DHT22;5197;48.152;8.590;2022-09-17T07:53:56;8.40;24.30
10304;DHT22;5197;48.152;8.590;2022-09-17T07:56:25;8.30;22.30
10304;DHT22;5197;48.152;8.590;2022-09-17T07:58:52;8.20;24.30
10304;DHT22;5197;48.152;8.590;2022-09-17T08:01:19;8.20;26.60
10304;DHT22;5197;48.152;8.590;2022-09-17T08:03:51;8.40;26.90
10304;DHT22;5197;48.152;8.590;2022-09-17T08:06:21;8.80;27.30
10304;DHT22;5197;48.152;8.590;2022-09-17T08:08:48;8.90;23.30
10304;DHT22;5197;48.152;8.590;2022-09-17T08:11:18;9.00;23.50
10304;DHT22;5197;48.152;8.590;2022-09-17T08:14:04;9.00;20.90
10304;DHT22;5197;48.152;8.590;2022-09-17T08:16:31;9.20;23.40
10304;DHT22;5197;48.152;8.590;2022-09-17T08:18:58;9.30;21.10
10304;DHT22;5197;48.152;8.590;2022-09-17T08:21:25;9.50;18.60
10304;DHT22;5197;48.152;8.590;2022-09-17T08:23:52;9.80;22.70
10304;DHT22;5197;48.152;8.590;2022-09-17T08:26:21;10.00;20.70
10304;DHT22;5197;48.152;8.590;2022-09-17T08:28:51;10.10;20.80
10304;DHT22;5197;48.152;8.590;2022-09-17T08:31:22;10.20;18.90
10304;DHT22;5197;48.152;8.590;2022-09-17T08:33:49;9.70;17.70
10304;DHT22;5197;48.152;8.590;2022-09-17T08:36:17;9.60;19.40
10304;DHT22;5197;48.152;8.590;2022-09-17T08:38:45;9.40;17.70
10304;DHT22;5197;48.152;8.590;2022-09-17T08:49:35;8.70;21.50
10304;DHT22;5197;48.152;8.590;2022-09-17T08:52:10;8.90;22.80
10304;DHT22;5197;48.152;8.590;2022-09-17T08:57:55;9.40;21.10
10304;DHT22;5197;48.152;8.590;2022-09-17T09:00:36;9.40;21.10
10304;DHT22;5197;48.152;8.590;2022-09-17T09:06:04;9.30;19.80
10304;DHT22;5197;48.152;8.590;2022-09-17T09:08:49;8.90;20.70
10304;DHT22;5197;48.152;8.590;2022-09-17T09:11:26;8.80;22.80
10304;DHT22;5197;48.152;8.590;2022-09-17T09:14:03;8.80;25.60
10304;DHT22;5197;48.152;8.590;2022-09-17T09:16:35;8.80;25.20
10304;DHT22;5197;48.152;8.590;2022-09-17T09:19:25;8.90;26.00
10304;DHT22;5197;48.152;8.590;2022-09-17T09:25:22;8.70;25.20
10304;DHT22;5197;48.152;8.590;2022-09-17T09:33:36;8.60;26.70
10304;DHT22;5197;48.152;8.590;2022-09-17T09:36:13;8.50;25.40
10304;DHT22;5197;48.152;8.590;2022-09-17T09:38:52;8.50;25.70
10304;DHT22;5197;48.152;8.590;2022-09-17T09:44:00;8.40;27.40
10304;DHT22;5197;48.152;8.590;2022-09-17T09:47:05;8.50;27.30
10304;DHT22;5197;48.152;8.590;2022-09-17T10:00:54;8.60;23.30
10304;DHT22;5197;48.152;8.590;2022-09-17T10:03:25;8.60;22.20
10304;DHT22;5197;48.152;8.590;2022-09-17T10:08:29;8.90;20.70
10304;DHT22;5197;48.152;8.590;2022-09-17T10:11:02;9.00;20.90
10304;DHT22;5197;48.152;8.590;2022-09-17T10:13:34;9.00;20.90
10304;DHT22;5197;48.152;8.590;2022-09-17T10:21:37;9.10;15.50
10304;DHT22;5197;48.152;8.590;2022-09-17T10:24:28;9.10;16.80
10304;DHT22;5197;48.152;8.590;2022-09-17T10:27:04;9.00;14.00
10304;DHT22;5197;48.152;8.590;2022-09-17T10:29:32;9.00;15.60
10304;DHT22;5197;48.152;8.590;2022-09-17T10:32:00;9.00;18.80
10304;DHT22;5197;48.152;8.590;2022-09-17T10:34:32;9.10;16.50
10304;DHT22;5197;48.152;8.590;2022-09-17T10:36:59;9.20;19.00
10304;DHT22;5197;48.152;8.590;2022-09-17T10:42:00;9.40;22.30
10304;DHT22;5197;48.152;8.590;2022-09-17T10:44:30;9.50;21.20
10304;DHT22;5197;48.152;8.590;2022-09-17T10:47:21;9.60;18.00
10304;DHT22;5197;48.152;8.590;2022-09-17T10:49:53;9.70;16.40
10304;DHT22;5197;48.152;8.590;2022-09-17T10:52:36;9.90;16.60
10304;DHT22;5197;48.152;8.590;2022-09-17T11:06:28;10.10;11.00
10304;DHT22;5197;48.152;8.590;2022-09-17T11:12:35;9.50;17.10
10304;DHT22;5197;48.152;8.590;2022-09-17T11:26:33;10.00;15.70
10304;DHT22;5197;48.152;8.590;2022-09-17T11:35:11;9.40;18.10
10304;DHT22;5197;48.152;8.590;2022-09-17T11:37:42;9.70;22.70
10304;DHT22;5197;48.152;8.590;2022-09-17T11:40:34;10.00;20.70
10304;DHT22;5197;48.152;8.590;2022-09-17T11:45:43;10.20;14.60
10304;DHT22;5197;48.152;8.590;2022-09-17T11:48:19;10.40;16.40
10304;DHT22;5197;48.152;8.590;2022-09-17T11:51:06;10.30;12.70
10304;DHT22;5197;48.152;8.590;2022-09-17T11:53:46;10.30;12.60
10304;DHT22;5197;48.152;8.590;2022-09-17T12:02:04;10.60;14.10
10304;DHT22;5197;48.152;8.590;2022-09-17T12:04:56;10.80;12.30
10304;DHT22;5197;48.152;8.590;2022-09-17T12:10:38;10.90;12.90
10304;DHT22;5197;48.152;8.590;2022-09-17T12:13:35;10.40;11.50
10304;DHT22;5197;48.152;8.590;2022-09-17T12:16:24;10.00;17.00
10304;DHT22;5197;48.152;8.590;2022-09-17T12:18:55;10.00;16.70
10304;DHT22;5197;48.152;8.590;2022-09-17T12:21:44;10.20;17.60
10304;DHT22;5197;48.152;8.590;2022-09-17T12:30:08;10.20;13.30
10304;DHT22;5197;48.152;8.590;2022-09-17T12:41:26;10.00;15.60
10304;DHT22;5197;48.152;8.590;2022-09-17T12:49:48;10.40;14.40
10304;DHT22;5197;48.152;8.590;2022-09-17T12:58:32;10.90;14.30
10304;DHT22;5197;48.152;8.590;2022-09-17T13:03:59;11.20;11.00
10304;DHT22;5197;48.152;8.590;2022-09-17T13:12:55;11.30;6.20
10304;DHT22;5197;48.152;8.590;2022-09-17T13:18:21;11.30;2.20
10304;DHT22;5197;48.152;8.590;2022-09-17T13:21:14;11.20;2.70
10304;DHT22;5197;48.152;8.590;2022-09-17T13:23:45;10.90;4.20
10304;DHT22;5197;48.152;8.590;2022-09-17T13:26:15;10.80;7.50
10304;DHT22;5197;48.152;8.590;2022-09-17T13:28:49;10.80;5.50
10304;DHT22;5197;48.152;8.590;2022-09-17T13:31:22;10.80;7.20
10304;DHT22;5197;48.152;8.590;2022-09-17T13:36:49;11.00;9.10
10304;DHT22;5197;48.152;8.590;2022-09-17T13:39:38;11.10;7.40
10304;DHT22;5197;48.152;8.590;2022-09-17T13:44:52;11.60;5.90
10304;DHT22;5197;48.152;8.590;2022-09-17T13:47:30;11.60;1.00
10304;DHT22;5197;48.152;8.590;2022-09-17T13:50:02;10.90;2.20
10304;DHT22;5197;48.152;8.590;2022-09-17T13:52:39;11.30;3.30
10304;DHT22;5197;48.152;8.590;2022-09-17T13:55:08;11.30;4.00
10304;DHT22;5197;48.152;8.590;2022-09-17T13:57:45;11.30;4.30
10304;DHT22;5197;48.152;8.590;2022-09-17T14:08:50;11.00;1.00
10304;DHT22;5197;48.152;8.590;2022-09-17T14:22:28;12.50;2.80
10304;DHT22;5197;48.152;8.590;2022-09-17T14:27:10;10.80;4.30
10304;DHT22;5197;48.152;8.590;2022-09-17T14:30:04;10.60;5.50
10304;DHT22;5197;48.152;8.590;2022-09-17T14:38:21;10.00;9.70
10304;DHT22;5197;48.152;8.590;2022-09-17T14:43:32;10.00;13.60
10304;DHT22;5197;48.152;8.590;2022-09-17T14:46:04;10.00;15.10
10304;DHT22;5197;48.152;8.590;2022-09-17T14:48:34;10.00;16.80
10304;DHT22;5197;48.152;8.590;2022-09-17T14:54:05;10.20;16.20
10304;DHT22;5197;48.152;8.590;2022-09-17T14:56:34;10.30;10.70
10304;DHT22;5197;48.152;8.590;2022-09-17T14:59:02;10.30;9.30
10304;DHT22;5197;48.152;8.590;2022-09-17T15:01:29;10.30;9.40
10304;DHT22;5197;48.152;8.590;2022-09-17T15:06:40;10.50;9.60
10304;DHT22;5197;48.152;8.590;2022-09-17T15:09:23;10.60;9.70
10304;DHT22;5197;48.152;8.590;2022-09-17T15:11:57;10.70;9.50
10304;DHT22;5197;48.152;8.590;2022-09-17T15:14:35;10.70;6.90
10304;DHT22;5197;48.152;8.590;2022-09-17T15:17:05;10.70;8.80
10304;DHT22;5197;48.152;8.590;2022-09-17T15:19:37;10.90;8.20
10304;DHT22;5197;48.152;8.590;2022-09-17T15:22:12;11.00;7.60
10304;DHT22;5197;48.152;8.590;2022-09-17T15:30:17;11.10;5.10
10304;DHT22;5197;48.152;8.590;2022-09-17T15:35:22;10.90;4.30
10304;DHT22;5197;48.152;8.590;2022-09-17T15:37:51;10.90;5.70
10304;DHT22;5197;48.152;8.590;2022-09-17T15:40:41;11.00;6.10
10304;DHT22;5197;48.152;8.590;2022-09-17T15:45:47;11.20;2.50
10304;DHT22;5197;48.152;8.590;2022-09-17T15:50:55;11.00;3.00
10304;DHT22;5197;48.152;8.590;2022-09-17T15:53:24;10.90;4.80
10304;DHT22;5197;48.152;8.590;2022-09-17T15:56:08;11.00;5.20
10304;DHT22;5197;48.152;8.590;2022-09-17T16:08:55;11.00;2.40
10304;DHT22;5197;48.152;8.590;2022-09-17T16:11:30;11.00;1.20
10304;DHT22;5197;48.152;8.590;2022-09-17T16:13:59;11.20;2.40
10304;DHT22;5197;48.152;8.590;2022-09-17T16:16:34;11.10;1.00
10304;DHT22;5197;48.152;8.590;2022-09-17T16:19:03;10.80;2.70
10304;DHT22;5197;48.152;8.590;2022-09-17T16:21:31;10.70;4.30
10304;DHT22;5197;48.152;8.590;2022-09-17T16:23:58;10.60;3.30
10304;DHT22;5197;48.152;8.590;2022-09-17T16:26:32;10.60;6.50
10304;DHT22;5197;48.152;8.590;2022-09-17T16:29:11;10.70;5.80
10304;DHT22;5197;48.152;8.590;2022-09-17T16:31:40;10.70;5.10
10304;DHT22;5197;48.152;8.590;2022-09-17T16:34:07;10.70;5.60
10304;DHT22;5197;48.152;8.590;2022-09-17T16:36:34;10.60;6.00
10304;DHT22;5197;48.152;8.590;2022-09-17T16:39:01;10.60;6.00
10304;DHT22;5197;48.152;8.590;2022-09-17T16:41:28;10.40;6.70
10304;DHT22;5197;48.152;8.590;2022-09-17T16:43:55;10.40;7.80
10304;DHT22;5197;48.152;8.590;2022-09-17T16:46:24;10.40;9.30
10304;DHT22;5197;48.152;8.590;2022-09-17T16:48:51;10.50;7.90
10304;DHT22;5197;48.152;8.590;2022-09-17T16:51:18;10.40;8.60
10304;DHT22;5197;48.152;8.590;2022-09-17T16:53:45;10.40;9.10
10304;DHT22;5197;48.152;8.590;2022-09-17T16:56:14;10.40;9.00
10304;DHT22;5197;48.152;8.590;2022-09-17T16:58:42;10.40;9.00
10304;DHT22;5197;48.152;8.590;2022-09-17T17:01:11;10.50;9.10
10304;DHT22;5197;48.152;8.590;2022-09-17T17:03:38;10.50;9.60
10304;DHT22;5197;48.152;8.590;2022-09-17T17:06:06;10.40;9.60
10304;DHT22;5197;48.152;8.590;2022-09-17T17:08:40;10.40;10.10
10304;DHT22;5197;48.152;8.590;2022-09-17T17:11:07;10.40;10.50
10304;DHT22;5197;48.152;8.590;2022-09-17T17:13:34;10.40;10.50
10304;DHT22;5197;48.152;8.590;2022-09-17T17:16:06;10.50;10.50
10304;DHT22;5197;48.152;8.590;2022-09-17T17:18:33;10.40;10.70
10304;DHT22;5197;48.152;8.590;2022-09-17T17:21:08;10.30;10.80
10304;DHT22;5197;48.152;8.590;2022-09-17T17:23:35;10.30;10.80
10304;DHT22;5197;48.152;8.590;2022-09-17T17:26:02;10.30;11.20
10304;DHT22;5197;48.152;8.590;2022-09-17T17:28:33;10.30;11.10
10304;DHT22;5197;48.152;8.590;2022-09-17T17:31:02;10.20;11.40
10304;DHT22;5197;48.152;8.590;2022-09-17T17:33:29;10.10;11.70
10304;DHT22;5197;48.152;8.590;2022-09-17T17:36:01;9.90;13.40
10304;DHT22;5197;48.152;8.590;2022-09-17T17:38:33;9.70;13.70
10304;DHT22;5197;48.152;8.590;2022-09-17T17:41:05;9.80;14.00
10304;DHT22;5197;48.152;8.590;2022-09-17T17:43:32;9.60;14.10
10304;DHT22;5197;48.152;8.590;2022-09-17T17:46:00;9.60;15.30
10304;DHT22;5197;48.152;8.590;2022-09-17T17:48:28;9.60;15.30
10304;DHT22;5197;48.152;8.590;2022-09-17T17:51:04;9.60;16.10
10304;DHT22;5197;48.152;8.590;2022-09-17T17:53:32;9.60;15.40
10304;DHT22;5197;48.152;8.590;2022-09-17T17:56:03;9.70;15.20
10304;DHT22;5197;48.152;8.590;2022-09-17T17:58:30;9.70;15.00
10304;DHT22;5197;48.152;8.590;2022-09-17T18:00:57;9.70;14.80
10304;DHT22;5197;48.152;8.590;2022-09-17T18:03:24;9.70;15.70
10304;DHT22;5197;48.152;8.590;2022-09-17T18:05:53;9.60;15.00
10304;DHT22;5197;48.152;8.590;2022-09-17T18:08:22;9.60;15.00
10304;DHT22;5197;48.152;8.590;2022-09-17T18:10:54;9.60;15.80
10304;DHT22;5197;48.152;8.590;2022-09-17T18:13:22;9.50;16.10
10304;DHT22;5197;48.152;8.590;2022-09-17T18:15:51;9.50;15.90
10304;DHT22;5197;48.152;8.590;2022-09-17T18:18:20;9.50;15.80
10304;DHT22;5197;48.152;8.590;2022-09-17T18:20:48;9.50;15.80
10304;DHT22;5197;48.152;8.590;2022-09-17T18:23:15;9.50;15.90
10304;DHT22;5197;48.152;8.590;2022-09-17T18:25:51;9.40;16.40
10304;DHT22;5197;48.152;8.590;2022-09-17T18:28:19;9.40;16.50
10304;DHT22;5197;48.152;8.590;2022-09-17T18:30:46;9.30;18.10
10304;DHT22;5197;48.152;8.590;2022-09-17T18:33:24;9.30;17.90
10304;DHT22;5197;48.152;8.590;2022-09-17T18:35:52;9.30;17.60
10304;DHT22;5197;48.152;8.590;2022-09-17T18:38:23;9.30;17.90
10304;DHT22;5197;48.152;8.590;2022-09-17T18:40:50;9.30;17.60
10304;DHT22;5197;48.152;8.590;2022-09-17T18:43:17;9.30;17.70
10304;DHT22;5197;48.152;8.590;2022-09-17T18:45:54;9.30;17.70
10304;DHT22;5197;48.152;8.590;2022-09-17T18:48:22;9.40;17.80
10304;DHT22;5197;48.152;8.590;2022-09-17T18:50:56;9.40;17.70
10304;DHT22;5197;48.152;8.590;2022-09-17T18:53:28;9.30;18.30
10304;DHT22;5197;48.152;8.590;2022-09-17T18:56:01;9.30;18.10
10304;DHT22;5197;48.152;8.590;2022-09-17T18:58:29;9.30;18.20
10304;DHT22;5197;48.152;8.590;2022-09-17T19:00:55;9.20;17.90
10304;DHT22;5197;48.152;8.590;2022-09-17T19:03:22;9.20;17.90
10304;DHT22;5197;48.152;8.590;2022-09-17T19:05:50;9.20;17.80
10304;DHT22;5197;48.152;8.590;2022-09-17T19:08:21;9.20;17.80
10304;DHT22;5197;48.152;8.590;2022-09-17T19:10:52;9.20;17.70
10304;DHT22;5197;48.152;8.590;2022-09-17T19:13:19;9.30;17.60
10304;DHT22;5197;48.152;8.590;2022-09-17T19:15:46;9.10;19.00
10304;DHT22;5197;48.152;8.590;2022-09-17T19:18:14;9.00;20.80
10304;DHT22;5197;48.152;8.590;2022-09-17T19:20:41;8.90;20.80
10304;DHT22;5197;48.152;8.590;2022-09-17T19:23:08;8.90;20.80
10304;DHT22;5197;48.152;8.590;2022-09-17T19:25:36;8.80;20.80
10304;DHT22;5197;48.152;8.590;2022-09-17T19:28:03;8.80;20.80
10304;DHT22;5197;48.152;8.590;2022-09-17T19:30:31;8.80;20.70
10304;DHT22;5197;48.152;8.590;2022-09-17T19:32:58;8.80;21.20
10304;DHT22;5197;48.152;8.590;2022-09-17T19:35:26;8.80;21.20
10304;DHT22;5197;48.152;8.590;2022-09-17T19:37:57;8.80;20.80
10304;DHT22;5197;48.152;8.590;2022-09-17T19:40:24;8.80;20.70
10304;DHT22;5197;48.152;8.590;2022-09-17T19:42:52;8.80;20.80
10304;DHT22;5197;48.152;8.590;2022-09-17T19:45:21;8.80;22.00
10304;DHT22;5197;48.152;8.590;2022-09-17T19:47:48;8.70;20.70
10304;DHT22;5197;48.152;8.590;2022-09-17T19:50:15;8.70;22.50
10304;DHT22;5197;48.152;8.590;2022-09-17T19:52:43;8.70;22.20
10304;DHT22;5197;48.152;8.590;2022-09-17T19:55:11;8.60;22.60
10304;DHT22;5197;48.152;8.590;2022-09-17T19:57:39;8.60;22.60
10304;DHT22;5197;48.152;8.590;2022-09-17T20:00:07;8.60;22.90
10304;DHT22;5197;48.152;8.590;2022-09-17T20:02:35;8.60;22.60
10304;DHT22;5197;48.152;8.590;2022-09-17T20:05:02;8.60;23.00
10304;DHT22;5197;48.152;8.590;2022-09-17T20:07:32;8.60;23.50
10304;DHT22;5197;48.152;8.590;2022-09-17T20:09:59;8.60;22.60
10304;DHT22;5197;48.152;8.590;2022-09-17T20:12:26;8.60;23.70